sensor_id;sensor_type;location;lat;lon;timestamp;temperature;humidity
13446;DHT22;6795;51.232;3.764;2022-08-18T00:01:09;16.40;99.90
13446;DHT22;6795;51.232;3.764;2022-08-18T00:03:43;16.40;99.90
13446;DHT22;6795;51.232;3.764;2022-08-18T00:06:26;16.40;99.90
13446;DHT22;6795;51.232;3.764;2022-08-18T00:08:56;16.50;99.90
13446;DHT22;6795;51.232;3.764;2022-08-18T00:11:25;16.60;99.90
13446;DHT22;6795;51.232;3.764;2022-08-18T00:14:09;16.60;99.90
13446;DHT22;6795;51.232;3.764;2022-08-18T00:16:47;16.70;99.90
13446;DHT22;6795;51.232;3.764;2022-08-18T00:19:17;16.80;99.90
13446;DHT22;6795;51.232;3.764;2022-08-18T00:21:45;16.90;99.90
13446;DHT22;6795;51.232;3.764;2022-08-18T00:24:13;16.90;99.90
13446;DHT22;6795;51.232;3.764;2022-08-18T00:26:44;17.00;99.90
13446;DHT22;6795;51.232;3.764;2022-08-18T00:29:14;17.00;99.90
13446;DHT22;6795;51.232;3.764;2022-08-18T00:31:42;17.00;99.90
13446;DHT22;6795;51.232;3.764;2022-08-18T00:34:11;17.00;99.90
13446;DHT22;6795;51.232;3.764;2022-08-18T00:36:40;17.00;99.90
13446;DHT22;6795;51.232;3.764;2022-08-18T00:39:09;16.90;99.90
13446;DHT22;6795;51.232;3.764;2022-08-18T00:41:37;16.80;99.90
13446;DHT22;6795;51.232;3.764;2022-08-18T00:44:06;16.70;99.90
13446;DHT22;6795;51.232;3.764;2022-08-18T00:46:36;16.50;99.90
13446;DHT22;6795;51.232;3.764;2022-08-18T00:49:04;16.40;99.90
13446;DHT22;6795;51.232;3.764;2022-08-18T00:51:37;16.20;99.90
13446;DHT22;6795;51.232;3.764;2022-08-18T00:54:09;16.00;99.90
13446;DHT22;6795;51.232;3.764;2022-08-18T00:56:43;15.90;99.90
13446;DHT22;6795;51.232;3.764;2022-08-18T00:59:16;15.90;99.90
13446;DHT22;6795;51.232;3.764;2022-08-18T01:01:48;15.90;99.90
13446;DHT22;6795;51.232;3.764;2022-08-18T01:04:21;15.90;99.90
13446;DHT22;6795;51.232;3.764;2022-08-18T01:06:54;15.90;99.90
13446;DHT22;6795;51.232;3.764;2022-08-18T01:09:25;15.80;99.90
13446;DHT22;6795;51.232;3.764;2022-08-18T01:11:54;15.80;99.90
13446;DHT22;6795;51.232;3.764;2022-08-18T01:14:23;15.80;99.90
13446;DHT22;6795;51.232;3.764;2022-08-18T01:16:53;15.80;99.90
13446;DHT22;6795;51.232;3.764;2022-08-18T01:19:39;15.70;99.90
13446;DHT22;6795;51.232;3.764;2022-08-18T01:22:28;15.60;99.90
13446;DHT22;6795;51.232;3.764;2022-08-18T01:25:01;15.60;99.90
13446;DHT22;6795;51.232;3.764;2022-08-18T01:27:49;15.60;99.90
13446;DHT22;6795;51.232;3.764;2022-08-18T01:30:18;15.70;99.90
13446;DHT22;6795;51.232;3.764;2022-08-18T01:32:51;15.60;99.90
13446;DHT22;6795;51.232;3.764;2022-08-18T01:35:22;15.60;99.90
13446;DHT22;6795;51.232;3.764;2022-08-18T01:37:51;15.50;99.90
13446;DHT22;6795;51.232;3.764;2022-08-18T01:40:22;15.50;99.90
13446;DHT22;6795;51.232;3.764;2022-08-18T01:43:11;15.50;99.90
13446;DHT22;6795;51.232;3.764;2022-08-18T01:45:40;15.40;99.90
13446;DHT22;6795;51.232;3.764;2022-08-18T01:48:08;15.30;99.90
13446;DHT22;6795;51.232;3.764;2022-08-18T01:50:37;15.20;99.90
13446;DHT22;6795;51.232;3.764;2022-08-18T01:53:07;15.20;99.90
13446;DHT22;6795;51.232;3.764;2022-08-18T01:55:40;15.10;99.90
13446;DHT22;6795;51.232;3.764;2022-08-18T01:58:11;15.00;99.90
13446;DHT22;6795;51.232;3.764;2022-08-18T02:00:39;14.90;99.90
13446;DHT22;6795;51.232;3.764;2022-08-18T02:03:11;15.00;99.90
13446;DHT22;6795;51.232;3.764;2022-08-18T02:05:43;14.90;99.90
13446;DHT22;6795;51.232;3.764;2022-08-18T02:08:13;14.90;99.90
13446;DHT22;6795;51.232;3.764;2022-08-18T02:10:43;15.00;99.90
13446;DHT22;6795;51.232;3.764;2022-08-18T02:13:11;15.00;99.90
13446;DHT22;6795;51.232;3.764;2022-08-18T02:15:39;15.00;99.90
13446;DHT22;6795;51.232;3.764;2022-08-18T02:18:13;14.90;99.90
13446;DHT22;6795;51.232;3.764;2022-08-18T02:21:06;14.90;99.90
13446;DHT22;6795;51.232;3.764;2022-08-18T02:23:36;14.80;99.90
13446;DHT22;6795;51.232;3.764;2022-08-18T02:26:14;14.70;99.90
13446;DHT22;6795;51.232;3.764;2022-08-18T02:28:44;14.70;99.90
13446;DHT22;6795;51.232;3.764;2022-08-18T02:31:15;14.70;99.90
13446;DHT22;6795;51.232;3.764;2022-08-18T02:33:44;14.70;99.90
13446;DHT22;6795;51.232;3.764;2022-08-18T02:36:19;14.70;99.90
13446;DHT22;6795;51.232;3.764;2022-08-18T02:38:51;14.80;99.90
13446;DHT22;6795;51.232;3.764;2022-08-18T02:41:27;14.80;99.90
13446;DHT22;6795;51.232;3.764;2022-08-18T02:43:56;14.80;99.90
13446;DHT22;6795;51.232;3.764;2022-08-18T02:46:25;14.80;99.90
13446;DHT22;6795;51.232;3.764;2022-08-18T02:48:57;14.80;99.90
13446;DHT22;6795;51.232;3.764;2022-08-18T02:51:26;14.70;99.90
13446;DHT22;6795;51.232;3.764;2022-08-18T02:53:54;14.70;99.90
13446;DHT22;6795;51.232;3.764;2022-08-18T02:56:28;14.80;99.90
13446;DHT22;6795;51.232;3.764;2022-08-18T02:59:11;14.70;99.90
13446;DHT22;6795;51.232;3.764;2022-08-18T03:01:42;14.80;99.90
13446;DHT22;6795;51.232;3.764;2022-08-18T03:04:12;14.90;99.90
13446;DHT22;6795;51.232;3.764;2022-08-18T03:06:41;14.90;99.90
13446;DHT22;6795;51.232;3.764;2022-08-18T03:09:12;14.90;99.90
13446;DHT22;6795;51.232;3.764;2022-08-18T03:11:44;14.90;99.90
13446;DHT22;6795;51.232;3.764;2022-08-18T03:14:13;14.90;99.90
13446;DHT22;6795;51.232;3.764;2022-08-18T03:16:44;14.90;99.90
13446;DHT22;6795;51.232;3.764;2022-08-18T03:19:21;14.80;99.90
13446;DHT22;6795;51.232;3.764;2022-08-18T03:21:50;14.70;99.90
13446;DHT22;6795;51.232;3.764;2022-08-18T03:24:19;14.60;99.90
13446;DHT22;6795;51.232;3.764;2022-08-18T03:26:51;14.70;99.90
13446;DHT22;6795;51.232;3.764;2022-08-18T03:29:22;14.60;99.90
13446;DHT22;6795;51.232;3.764;2022-08-18T03:31:58;14.60;99.90
13446;DHT22;6795;51.232;3.764;2022-08-18T03:34:27;14.60;99.90
13446;DHT22;6795;51.232;3.764;2022-08-18T03:36:55;14.60;99.90
13446;DHT22;6795;51.232;3.764;2022-08-18T03:39:23;14.70;99.90
13446;DHT22;6795;51.232;3.764;2022-08-18T03:41:55;14.60;99.90
13446;DHT22;6795;51.232;3.764;2022-08-18T03:44:29;14.60;99.90
13446;DHT22;6795;51.232;3.764;2022-08-18T03:46:58;14.60;99.90
13446;DHT22;6795;51.232;3.764;2022-08-18T03:49:30;14.60;99.90
13446;DHT22;6795;51.232;3.764;2022-08-18T03:52:00;14.60;99.90
13446;DHT22;6795;51.232;3.764;2022-08-18T03:54:29;14.60;99.90
13446;DHT22;6795;51.232;3.764;2022-08-18T03:57:01;14.60;99.90
13446;DHT22;6795;51.232;3.764;2022-08-18T03:59:29;14.60;99.90
13446;DHT22;6795;51.232;3.764;2022-08-18T04:01:58;14.60;99.90
13446;DHT22;6795;51.232;3.764;2022-08-18T04:04:27;14.70;99.90
13446;DHT22;6795;51.232;3.764;2022-08-18T04:06:58;14.70;99.90
13446;DHT22;6795;51.232;3.764;2022-08-18T04:09:28;14.80;99.90
13446;DHT22;6795;51.232;3.764;2022-08-18T04:11:57;14.80;99.90
13446;DHT22;6795;51.232;3.764;2022-08-18T04:14:34;14.90;99.90
13446;DHT22;6795;51.232;3.764;2022-08-18T04:17:03;14.90;99.90
13446;DHT22;6795;51.232;3.764;2022-08-18T04:19:31;14.90;99.90
13446;DHT22;6795;51.232;3.764;2022-08-18T04:22:01;14.90;99.90
13446;DHT22;6795;51.232;3.764;2022-08-18T04:24:31;14.80;99.90
13446;DHT22;6795;51.232;3.764;2022-08-18T04:27:02;14.80;99.90
13446;DHT22;6795;51.232;3.764;2022-08-18T04:29:31;14.80;99.90
13446;DHT22;6795;51.232;3.764;2022-08-18T04:32:02;14.80;99.90
13446;DHT22;6795;51.232;3.764;2022-08-18T04:34:31;14.80;99.90
13446;DHT22;6795;51.232;3.764;2022-08-18T04:37:00;14.80;99.90
13446;DHT22;6795;51.232;3.764;2022-08-18T04:39:30;14.70;99.90
13446;DHT22;6795;51.232;3.764;2022-08-18T04:41:58;14.70;99.90
13446;DHT22;6795;51.232;3.764;2022-08-18T04:44:31;14.60;99.90
13446;DHT22;6795;51.232;3.764;2022-08-18T04:47:01;14.50;99.90
13446;DHT22;6795;51.232;3.764;2022-08-18T04:49:30;14.60;99.90
13446;DHT22;6795;51.232;3.764;2022-08-18T04:51:59;14.60;99.90
13446;DHT22;6795;51.232;3.764;2022-08-18T04:55:06;14.50;99.90
13446;DHT22;6795;51.232;3.764;2022-08-18T04:57:34;14.50;99.90
13446;DHT22;6795;51.232;3.764;2022-08-18T05:00:04;14.50;99.90
13446;DHT22;6795;51.232;3.764;2022-08-18T05:02:35;14.60;99.90
13446;DHT22;6795;51.232;3.764;2022-08-18T05:05:04;14.60;99.90
13446;DHT22;6795;51.232;3.764;2022-08-18T05:07:32;14.60;99.90
13446;DHT22;6795;51.232;3.764;2022-08-18T05:10:01;14.60;99.90
13446;DHT22;6795;51.232;3.764;2022-08-18T05:12:29;14.70;99.90
13446;DHT22;6795;51.232;3.764;2022-08-18T05:14:57;14.70;99.90
13446;DHT22;6795;51.232;3.764;2022-08-18T05:17:25;14.80;99.90
13446;DHT22;6795;51.232;3.764;2022-08-18T05:19:58;14.90;99.90
13446;DHT22;6795;51.232;3.764;2022-08-18T05:22:28;15.00;99.90
13446;DHT22;6795;51.232;3.764;2022-08-18T05:24:57;15.10;99.90
13446;DHT22;6795;51.232;3.764;2022-08-18T05:27:31;15.20;99.90
13446;DHT22;6795;51.232;3.764;2022-08-18T05:30:00;15.20;99.90
13446;DHT22;6795;51.232;3.764;2022-08-18T05:32:28;15.20;99.90
13446;DHT22;6795;51.232;3.764;2022-08-18T05:35:19;15.20;99.90
13446;DHT22;6795;51.232;3.764;2022-08-18T05:38:10;15.20;99.90
13446;DHT22;6795;51.232;3.764;2022-08-18T05:40:42;15.30;99.90
13446;DHT22;6795;51.232;3.764;2022-08-18T05:43:12;15.30;99.90
13446;DHT22;6795;51.232;3.764;2022-08-18T05:45:41;15.40;99.90
13446;DHT22;6795;51.232;3.764;2022-08-18T05:48:09;15.50;99.90
13446;DHT22;6795;51.232;3.764;2022-08-18T05:50:40;15.60;99.90
13446;DHT22;6795;51.232;3.764;2022-08-18T05:53:12;15.60;99.90
13446;DHT22;6795;51.232;3.764;2022-08-18T05:55:47;15.70;99.90
13446;DHT22;6795;51.232;3.764;2022-08-18T05:58:41;15.80;99.90
13446;DHT22;6795;51.232;3.764;2022-08-18T06:01:15;15.90;99.90
13446;DHT22;6795;51.232;3.764;2022-08-18T06:03:47;16.00;99.90
13446;DHT22;6795;51.232;3.764;2022-08-18T06:06:20;16.10;99.90
13446;DHT22;6795;51.232;3.764;2022-08-18T06:08:56;16.30;99.90
13446;DHT22;6795;51.232;3.764;2022-08-18T06:11:25;16.40;99.90
13446;DHT22;6795;51.232;3.764;2022-08-18T06:13:54;16.50;99.90
13446;DHT22;6795;51.232;3.764;2022-08-18T06:16:40;16.70;99.90
13446;DHT22;6795;51.232;3.764;2022-08-18T06:19:28;16.80;99.90
13446;DHT22;6795;51.232;3.764;2022-08-18T06:22:10;16.90;99.90
13446;DHT22;6795;51.232;3.764;2022-08-18T06:24:46;17.10;99.90
13446;DHT22;6795;51.232;3.764;2022-08-18T06:27:21;17.30;99.90
13446;DHT22;6795;51.232;3.764;2022-08-18T06:30:02;17.60;99.90
13446;DHT22;6795;51.232;3.764;2022-08-18T06:32:46;17.90;99.90
13446;DHT22;6795;51.232;3.764;2022-08-18T06:35:27;18.10;99.90
13446;DHT22;6795;51.232;3.764;2022-08-18T06:38:11;18.40;99.90
13446;DHT22;6795;51.232;3.764;2022-08-18T06:41:01;18.70;99.90
13446;DHT22;6795;51.232;3.764;2022-08-18T06:43:30;19.10;99.90
13446;DHT22;6795;51.232;3.764;2022-08-18T06:46:02;19.30;99.90
13446;DHT22;6795;51.232;3.764;2022-08-18T06:48:41;19.50;99.90
13446;DHT22;6795;51.232;3.764;2022-08-18T06:51:18;19.80;99.90
13446;DHT22;6795;51.232;3.764;2022-08-18T06:53:57;20.10;99.90
13446;DHT22;6795;51.232;3.764;2022-08-18T06:56:33;20.40;99.90
13446;DHT22;6795;51.232;3.764;2022-08-18T06:59:18;20.50;99.90
13446;DHT22;6795;51.232;3.764;2022-08-18T07:01:50;20.60;99.90
13446;DHT22;6795;51.232;3.764;2022-08-18T07:04:31;20.90;99.90
13446;DHT22;6795;51.232;3.764;2022-08-18T07:07:16;21.00;99.90
13446;DHT22;6795;51.232;3.764;2022-08-18T07:09:48;21.00;99.90
13446;DHT22;6795;51.232;3.764;2022-08-18T07:12:22;21.10;99.90
13446;DHT22;6795;51.232;3.764;2022-08-18T07:15:00;21.10;99.90
13446;DHT22;6795;51.232;3.764;2022-08-18T07:17:30;21.30;99.90
13446;DHT22;6795;51.232;3.764;2022-08-18T07:20:20;21.50;99.90
13446;DHT22;6795;51.232;3.764;2022-08-18T07:22:55;21.80;99.90
13446;DHT22;6795;51.232;3.764;2022-08-18T07:25:29;21.80;99.90
13446;DHT22;6795;51.232;3.764;2022-08-18T07:27:58;21.90;99.90
13446;DHT22;6795;51.232;3.764;2022-08-18T07:30:32;22.10;99.90
13446;DHT22;6795;51.232;3.764;2022-08-18T07:33:18;22.20;99.90
13446;DHT22;6795;51.232;3.764;2022-08-18T07:35:50;22.30;99.90
13446;DHT22;6795;51.232;3.764;2022-08-18T07:38:23;22.50;99.90
13446;DHT22;6795;51.232;3.764;2022-08-18T07:41:15;22.60;99.90
13446;DHT22;6795;51.232;3.764;2022-08-18T07:43:55;22.80;99.90
13446;DHT22;6795;51.232;3.764;2022-08-18T07:46:36;23.00;99.90
13446;DHT22;6795;51.232;3.764;2022-08-18T07:49:05;23.60;99.90
13446;DHT22;6795;51.232;3.764;2022-08-18T07:51:43;24.30;99.90
13446;DHT22;6795;51.232;3.764;2022-08-18T07:54:28;24.40;99.90
13446;DHT22;6795;51.232;3.764;2022-08-18T07:57:24;24.50;99.90
13446;DHT22;6795;51.232;3.764;2022-08-18T08:00:04;24.80;99.90
13446;DHT22;6795;51.232;3.764;2022-08-18T08:02:55;24.70;99.90
13446;DHT22;6795;51.232;3.764;2022-08-18T08:05:38;24.20;99.90
13446;DHT22;6795;51.232;3.764;2022-08-18T08:08:18;23.70;99.90
13446;DHT22;6795;51.232;3.764;2022-08-18T08:11:03;23.60;99.90
13446;DHT22;6795;51.232;3.764;2022-08-18T08:13:45;23.60;99.90
13446;DHT22;6795;51.232;3.764;2022-08-18T08:16:27;23.50;99.90
13446;DHT22;6795;51.232;3.764;2022-08-18T08:19:08;23.20;99.90
13446;DHT22;6795;51.232;3.764;2022-08-18T08:21:42;23.00;99.90
13446;DHT22;6795;51.232;3.764;2022-08-18T08:24:24;23.10;99.90
13446;DHT22;6795;51.232;3.764;2022-08-18T08:27:00;23.30;99.90
13446;DHT22;6795;51.232;3.764;2022-08-18T08:29:45;23.60;99.90
13446;DHT22;6795;51.232;3.764;2022-08-18T08:32:19;24.00;99.90
13446;DHT22;6795;51.232;3.764;2022-08-18T08:34:56;24.30;99.90
13446;DHT22;6795;51.232;3.764;2022-08-18T08:37:32;24.70;99.90
13446;DHT22;6795;51.232;3.764;2022-08-18T08:40:05;25.20;99.90
13446;DHT22;6795;51.232;3.764;2022-08-18T08:42:39;25.40;99.90
13446;DHT22;6795;51.232;3.764;2022-08-18T08:45:13;25.60;99.90
13446;DHT22;6795;51.232;3.764;2022-08-18T08:47:50;25.80;99.90
13446;DHT22;6795;51.232;3.764;2022-08-18T08:50:35;25.70;99.90
13446;DHT22;6795;51.232;3.764;2022-08-18T08:53:10;25.50;99.90
13446;DHT22;6795;51.232;3.764;2022-08-18T09:01:47;26.20;99.90
13446;DHT22;6795;51.232;3.764;2022-08-18T09:04:29;26.20;99.90
13446;DHT22;6795;51.232;3.764;2022-08-18T09:07:11;26.40;99.90
13446;DHT22;6795;51.232;3.764;2022-08-18T09:10:08;26.10;99.90
13446;DHT22;6795;51.232;3.764;2022-08-18T09:12:55;25.40;99.90
13446;DHT22;6795;51.232;3.764;2022-08-18T09:15:44;24.90;99.90
13446;DHT22;6795;51.232;3.764;2022-08-18T09:18:43;24.80;99.90
13446;DHT22;6795;51.232;3.764;2022-08-18T09:21:36;25.10;99.90
13446;DHT22;6795;51.232;3.764;2022-08-18T09:24:10;25.40;99.90
13446;DHT22;6795;51.232;3.764;2022-08-18T09:26:50;25.40;99.90
13446;DHT22;6795;51.232;3.764;2022-08-18T09:29:24;25.60;99.90
13446;DHT22;6795;51.232;3.764;2022-08-18T09:35:20;26.10;99.90
13446;DHT22;6795;51.232;3.764;2022-08-18T09:37:56;26.30;99.90
13446;DHT22;6795;51.232;3.764;2022-08-18T09:40:49;26.60;99.90
13446;DHT22;6795;51.232;3.764;2022-08-18T09:43:37;26.40;99.90
13446;DHT22;6795;51.232;3.764;2022-08-18T09:46:09;25.90;99.90
13446;DHT22;6795;51.232;3.764;2022-08-18T09:48:40;25.60;99.90
13446;DHT22;6795;51.232;3.764;2022-08-18T09:51:33;25.10;99.90
13446;DHT22;6795;51.232;3.764;2022-08-18T09:54:14;24.80;99.90
13446;DHT22;6795;51.232;3.764;2022-08-18T09:57:18;24.90;99.90
13446;DHT22;6795;51.232;3.764;2022-08-18T10:00:25;25.30;99.90
13446;DHT22;6795;51.232;3.764;2022-08-18T10:03:09;26.00;99.90
13446;DHT22;6795;51.232;3.764;2022-08-18T10:05:55;26.30;99.90
13446;DHT22;6795;51.232;3.764;2022-08-18T10:08:51;26.60;99.90
13446;DHT22;6795;51.232;3.764;2022-08-18T10:11:32;26.20;99.90
13446;DHT22;6795;51.232;3.764;2022-08-18T10:14:29;25.90;99.90
13446;DHT22;6795;51.232;3.764;2022-08-18T10:17:11;25.90;99.90
13446;DHT22;6795;51.232;3.764;2022-08-18T10:20:13;25.70;99.90
13446;DHT22;6795;51.232;3.764;2022-08-18T10:22:52;25.50;99.90
13446;DHT22;6795;51.232;3.764;2022-08-18T10:25:38;25.40;99.90
13446;DHT22;6795;51.232;3.764;2022-08-18T10:28:09;25.10;99.90
13446;DHT22;6795;51.232;3.764;2022-08-18T10:34:02;25.40;99.90
13446;DHT22;6795;51.232;3.764;2022-08-18T10:39:41;26.10;99.90
13446;DHT22;6795;51.232;3.764;2022-08-18T10:42:17;25.80;99.90
13446;DHT22;6795;51.232;3.764;2022-08-18T10:44:49;26.00;99.90
13446;DHT22;6795;51.232;3.764;2022-08-18T10:47:23;26.30;99.90
13446;DHT22;6795;51.232;3.764;2022-08-18T10:50:03;26.60;99.90
13446;DHT22;6795;51.232;3.764;2022-08-18T10:52:55;27.10;99.90
13446;DHT22;6795;51.232;3.764;2022-08-18T10:55:51;27.40;99.90
13446;DHT22;6795;51.232;3.764;2022-08-18T10:58:40;27.50;99.90
13446;DHT22;6795;51.232;3.764;2022-08-18T11:01:27;27.40;99.90
13446;DHT22;6795;51.232;3.764;2022-08-18T11:04:03;27.00;99.90
13446;DHT22;6795;51.232;3.764;2022-08-18T11:07:00;26.50;99.90
13446;DHT22;6795;51.232;3.764;2022-08-18T11:09:34;26.20;99.90
13446;DHT22;6795;51.232;3.764;2022-08-18T11:12:10;26.30;99.90
13446;DHT22;6795;51.232;3.764;2022-08-18T11:15:05;26.60;99.90
13446;DHT22;6795;51.232;3.764;2022-08-18T11:18:05;27.00;99.90
13446;DHT22;6795;51.232;3.764;2022-08-18T11:20:37;27.30;99.90
13446;DHT22;6795;51.232;3.764;2022-08-18T11:23:13;27.90;99.90
13446;DHT22;6795;51.232;3.764;2022-08-18T11:25:42;28.10;99.90
13446;DHT22;6795;51.232;3.764;2022-08-18T11:28:15;27.50;99.90
13446;DHT22;6795;51.232;3.764;2022-08-18T11:30:49;27.30;99.90
13446;DHT22;6795;51.232;3.764;2022-08-18T11:33:19;27.60;99.90
13446;DHT22;6795;51.232;3.764;2022-08-18T11:35:53;27.80;99.90
13446;DHT22;6795;51.232;3.764;2022-08-18T11:38:24;28.00;99.90
13446;DHT22;6795;51.232;3.764;2022-08-18T11:41:09;28.20;99.90
13446;DHT22;6795;51.232;3.764;2022-08-18T11:43:41;28.50;99.90
13446;DHT22;6795;51.232;3.764;2022-08-18T11:46:23;28.80;99.90
13446;DHT22;6795;51.232;3.764;2022-08-18T11:48:59;28.80;99.90
13446;DHT22;6795;51.232;3.764;2022-08-18T11:51:31;28.50;99.90
13446;DHT22;6795;51.232;3.764;2022-08-18T11:54:02;28.20;99.90
13446;DHT22;6795;51.232;3.764;2022-08-18T11:56:49;28.70;99.90
13446;DHT22;6795;51.232;3.764;2022-08-18T11:59:30;28.80;99.90
13446;DHT22;6795;51.232;3.764;2022-08-18T12:02:22;28.40;99.90
13446;DHT22;6795;51.232;3.764;2022-08-18T12:04:53;27.90;99.90
13446;DHT22;6795;51.232;3.764;2022-08-18T12:07:33;27.60;99.90
13446;DHT22;6795;51.232;3.764;2022-08-18T12:10:14;27.80;99.90
13446;DHT22;6795;51.232;3.764;2022-08-18T12:12:49;28.50;99.90
13446;DHT22;6795;51.232;3.764;2022-08-18T12:15:28;29.00;99.90
13446;DHT22;6795;51.232;3.764;2022-08-18T12:18:13;29.10;99.90
13446;DHT22;6795;51.232;3.764;2022-08-18T12:20:55;28.90;99.90
13446;DHT22;6795;51.232;3.764;2022-08-18T12:23:24;29.50;99.90
13446;DHT22;6795;51.232;3.764;2022-08-18T12:28:34;31.00;99.90
13446;DHT22;6795;51.232;3.764;2022-08-18T12:31:05;31.40;99.90
13446;DHT22;6795;51.232;3.764;2022-08-18T12:33:44;31.40;98.10
13446;DHT22;6795;51.232;3.764;2022-08-18T12:36:34;31.40;98.60
13446;DHT22;6795;51.232;3.764;2022-08-18T12:39:04;31.50;97.80
13446;DHT22;6795;51.232;3.764;2022-08-18T12:41:35;30.60;98.80
13446;DHT22;6795;51.232;3.764;2022-08-18T12:44:04;29.70;99.30
13446;DHT22;6795;51.232;3.764;2022-08-18T12:46:40;28.70;99.90
13446;DHT22;6795;51.232;3.764;2022-08-18T12:49:15;28.50;99.90
13446;DHT22;6795;51.232;3.764;2022-08-18T12:51:47;28.50;99.90
13446;DHT22;6795;51.232;3.764;2022-08-18T12:54:16;28.60;99.90
13446;DHT22;6795;51.232;3.764;2022-08-18T12:56:48;28.70;99.90
13446;DHT22;6795;51.232;3.764;2022-08-18T12:59:17;29.60;99.90
13446;DHT22;6795;51.232;3.764;2022-08-18T13:01:46;30.40;99.70
13446;DHT22;6795;51.232;3.764;2022-08-18T13:04:16;30.40;99.10
13446;DHT22;6795;51.232;3.764;2022-08-18T13:06:46;30.50;98.70
13446;DHT22;6795;51.232;3.764;2022-08-18T13:09:27;30.50;98.90
13446;DHT22;6795;51.232;3.764;2022-08-18T13:12:16;30.40;99.20
13446;DHT22;6795;51.232;3.764;2022-08-18T13:14:46;30.60;98.80
13446;DHT22;6795;51.232;3.764;2022-08-18T13:17:17;30.90;96.80
13446;DHT22;6795;51.232;3.764;2022-08-18T13:20:03;31.10;98.00
13446;DHT22;6795;51.232;3.764;2022-08-18T13:22:34;31.00;98.60
13446;DHT22;6795;51.232;3.764;2022-08-18T13:25:04;31.10;96.30
13446;DHT22;6795;51.232;3.764;2022-08-18T13:27:34;30.20;98.10
13446;DHT22;6795;51.232;3.764;2022-08-18T13:30:15;30.00;97.80
13446;DHT22;6795;51.232;3.764;2022-08-18T13:32:57;30.80;97.80
13446;DHT22;6795;51.232;3.764;2022-08-18T13:35:50;31.20;96.30
13446;DHT22;6795;51.232;3.764;2022-08-18T13:38:22;31.50;96.60
13446;DHT22;6795;51.232;3.764;2022-08-18T13:40:56;32.00;96.00
13446;DHT22;6795;51.232;3.764;2022-08-18T13:43:29;31.90;95.10
13446;DHT22;6795;51.232;3.764;2022-08-18T13:46:00;31.50;94.90
13446;DHT22;6795;51.232;3.764;2022-08-18T13:48:29;31.20;94.10
13446;DHT22;6795;51.232;3.764;2022-08-18T13:51:00;30.60;95.20
13446;DHT22;6795;51.232;3.764;2022-08-18T13:53:29;30.70;95.70
13446;DHT22;6795;51.232;3.764;2022-08-18T13:55:58;30.70;95.50
13446;DHT22;6795;51.232;3.764;2022-08-18T13:58:27;30.70;95.90
13446;DHT22;6795;51.232;3.764;2022-08-18T14:00:58;30.50;95.30
13446;DHT22;6795;51.232;3.764;2022-08-18T14:03:48;29.60;96.00
13446;DHT22;6795;51.232;3.764;2022-08-18T14:06:18;29.00;97.80
13446;DHT22;6795;51.232;3.764;2022-08-18T14:08:50;29.50;97.60
13446;DHT22;6795;51.232;3.764;2022-08-18T14:11:23;30.20;97.70
13446;DHT22;6795;51.232;3.764;2022-08-18T14:13:53;30.60;95.90
13446;DHT22;6795;51.232;3.764;2022-08-18T14:16:22;31.00;95.80
13446;DHT22;6795;51.232;3.764;2022-08-18T14:18:53;30.50;95.00
13446;DHT22;6795;51.232;3.764;2022-08-18T14:21:43;30.30;95.30
13446;DHT22;6795;51.232;3.764;2022-08-18T14:24:30;30.10;96.00
13446;DHT22;6795;51.232;3.764;2022-08-18T14:27:17;29.70;96.00
13446;DHT22;6795;51.232;3.764;2022-08-18T14:29:46;29.70;96.40
13446;DHT22;6795;51.232;3.764;2022-08-18T14:32:19;29.60;95.10
13446;DHT22;6795;51.232;3.764;2022-08-18T14:34:56;29.60;96.20
13446;DHT22;6795;51.232;3.764;2022-08-18T14:37:29;29.70;95.80
13446;DHT22;6795;51.232;3.764;2022-08-18T14:39:59;29.40;96.00
13446;DHT22;6795;51.232;3.764;2022-08-18T14:42:28;29.30;96.10
13446;DHT22;6795;51.232;3.764;2022-08-18T14:45:16;29.30;96.80
13446;DHT22;6795;51.232;3.764;2022-08-18T14:48:03;29.40;95.50
13446;DHT22;6795;51.232;3.764;2022-08-18T14:50:38;29.10;95.80
13446;DHT22;6795;51.232;3.764;2022-08-18T14:53:17;28.90;96.30
13446;DHT22;6795;51.232;3.764;2022-08-18T14:55:47;29.00;97.10
13446;DHT22;6795;51.232;3.764;2022-08-18T14:58:18;29.50;96.50
13446;DHT22;6795;51.232;3.764;2022-08-18T15:00:50;30.00;96.00
13446;DHT22;6795;51.232;3.764;2022-08-18T15:03:27;30.00;94.80
13446;DHT22;6795;51.232;3.764;2022-08-18T15:05:59;29.40;95.40
13446;DHT22;6795;51.232;3.764;2022-08-18T15:08:33;29.20;95.40
13446;DHT22;6795;51.232;3.764;2022-08-18T15:11:03;29.00;95.30
13446;DHT22;6795;51.232;3.764;2022-08-18T15:13:39;29.00;95.70
13446;DHT22;6795;51.232;3.764;2022-08-18T15:16:08;29.20;96.00
13446;DHT22;6795;51.232;3.764;2022-08-18T15:18:39;28.90;96.50
13446;DHT22;6795;51.232;3.764;2022-08-18T15:21:07;28.80;95.70
13446;DHT22;6795;51.232;3.764;2022-08-18T15:24:05;28.50;96.10
13446;DHT22;6795;51.232;3.764;2022-08-18T15:26:52;28.70;96.30
13446;DHT22;6795;51.232;3.764;2022-08-18T15:29:32;28.70;95.80
13446;DHT22;6795;51.232;3.764;2022-08-18T15:32:01;28.90;95.90
13446;DHT22;6795;51.232;3.764;2022-08-18T15:34:32;29.10;95.50
13446;DHT22;6795;51.232;3.764;2022-08-18T15:37:17;28.60;95.50
13446;DHT22;6795;51.232;3.764;2022-08-18T15:39:59;28.30;96.70
13446;DHT22;6795;51.232;3.764;2022-08-18T15:42:28;28.30;96.50
13446;DHT22;6795;51.232;3.764;2022-08-18T15:45:00;28.20;96.80
13446;DHT22;6795;51.232;3.764;2022-08-18T15:47:38;28.40;97.30
13446;DHT22;6795;51.232;3.764;2022-08-18T15:50:09;28.40;97.40
13446;DHT22;6795;51.232;3.764;2022-08-18T15:52:55;28.70;96.40
13446;DHT22;6795;51.232;3.764;2022-08-18T15:55:27;28.70;96.30
13446;DHT22;6795;51.232;3.764;2022-08-18T15:58:03;28.70;95.90
13446;DHT22;6795;51.232;3.764;2022-08-18T16:00:39;28.70;95.60
13446;DHT22;6795;51.232;3.764;2022-08-18T16:03:11;28.50;95.70
13446;DHT22;6795;51.232;3.764;2022-08-18T16:05:47;28.60;96.00
13446;DHT22;6795;51.232;3.764;2022-08-18T16:08:19;28.70;95.70
13446;DHT22;6795;51.232;3.764;2022-08-18T16:10:49;28.30;95.80
13446;DHT22;6795;51.232;3.764;2022-08-18T16:13:18;28.30;96.10
13446;DHT22;6795;51.232;3.764;2022-08-18T16:15:47;28.30;96.00
13446;DHT22;6795;51.232;3.764;2022-08-18T16:18:18;28.30;96.00
13446;DHT22;6795;51.232;3.764;2022-08-18T16:20:47;28.00;96.30
13446;DHT22;6795;51.232;3.764;2022-08-18T16:23:19;28.20;96.60
13446;DHT22;6795;51.232;3.764;2022-08-18T16:25:58;28.10;96.20
13446;DHT22;6795;51.232;3.764;2022-08-18T16:28:29;27.90;96.90
13446;DHT22;6795;51.232;3.764;2022-08-18T16:31:01;28.00;97.20
13446;DHT22;6795;51.232;3.764;2022-08-18T16:33:33;28.20;97.40
13446;DHT22;6795;51.232;3.764;2022-08-18T16:36:07;28.40;96.80
13446;DHT22;6795;51.232;3.764;2022-08-18T16:38:38;28.30;97.00
13446;DHT22;6795;51.232;3.764;2022-08-18T16:41:15;28.00;96.80
13446;DHT22;6795;51.232;3.764;2022-08-18T16:43:45;27.90;96.80
13446;DHT22;6795;51.232;3.764;2022-08-18T16:46:15;27.80;96.60
13446;DHT22;6795;51.232;3.764;2022-08-18T16:48:44;27.80;96.90
13446;DHT22;6795;51.232;3.764;2022-08-18T16:51:14;28.10;96.80
13446;DHT22;6795;51.232;3.764;2022-08-18T16:53:42;28.40;97.30
13446;DHT22;6795;51.232;3.764;2022-08-18T17:00:19;27.90;97.00